Watertown, SD (57201)

9:43 AM CST on February 13, 2016 (GMT -0600)
East side of Watertown, SD | | Change Station
CLOSE
Current Station
Personal Weather Station
Location: Watertown, SD
Elevation: 1732 ft
Nearby Weather Stations
Active Advisory: Winter Weather Advisory

Elev 1732 ft 44.89 °N, 97.09 °W | Updated 14 minutes ago

Overcast
Overcast
6.7 °F
Feels Like -1 °F
N
4.2
Wind Variable Wind from SE

Today
High -- | Low -- °F
--% Chance of Precip.
Yesterday
High -- | Low -- °F
Precip. -- in
Pressure 30.58 in
Visibility 10.0 miles
Clouds Overcast 7500 ft
Windchill -1 °F
Dew Point -1 °F
Humidity 71%
Rainfall 0.00 in
Snow Depth Not available.
7:32 AM 5:53 PM
Waxing Crescent, 31% visible
METAR KATY 131453Z AUTO 15016KT 10SM OVC075 M17/M23 A3042 RMK AO2 SLP354 T11671228 58014
Pressure 30.58 in
Visibility 10.0 miles
Clouds Overcast 7500 ft
Windchill -1 °F
Dew Point -1 °F
Humidity 71%
Rainfall 0.00 in
Snow Depth Not available.
7:32 AM 5:53 PM
Waxing Crescent, 31% visible
METAR KATY 131453Z AUTO 15016KT 10SM OVC075 M17/M23 A3042 RMK AO2 SLP354 T11671228 58014

10-Day Weather Forecast

Almanac

Astronomy

Feb. 13, 2016 Rise Set
Actual Time
Civil Twilight
Nautical Twilight
Astronomical Twilight
Moon
Length of Visible Light
Length of Day
Tomorrow will be .
, % of the Moon is Illuminated

Today's Extremes

State Highs State Lows

Community

WunderPhotos

Upload Photos

1,892,587 photos uploaded!

WunderBlog® & News

Nearby

Air Quality

  Air Quality AQ Index Pollutant
Not available.

Snow Depth

Station Depth Elevation

Earthquake Activity

City Distance Mag. Time & Date
Minimum magnitude displayed is 2.5.

Coastal Water Temperatures

Place Temperature

Stations

Nearby Weather Stations

Station Location Temp. Windchill Dew Point Humidity Wind Precip. Elev Updated Type
                   

Watches & Warnings

Winter Weather Advisory
Issued: 3:22 AM CST Feb. 13, 2016 – National Weather Service

... Winter Weather Advisory in effect from 6 PM this evening to
noon CST Sunday...

The National Weather Service in Aberdeen has issued a Winter
Weather Advisory for snow... which is in effect from 6 PM this
evening to noon CST Sunday. The Winter Storm Watch is no longer in
effect.

* Expect snow to develop this afternoon and then diminish around
noon Sunday.

* The heaviest snowfall rates will occur between midnight and 6
am Sunday.

* Total snow accumulations of 3 to 6 inches are expected.

* Look for reduced visibilities at times due to snow and wind.

* Plan on slippery Road conditions due to blowing snow.

Precautionary/preparedness actions...

A Winter Weather Advisory for snow means periods of snow will
cause primarily travel difficulties. Be prepared for snow covered
roads and limited visibilities... and use caution while driving.
The latest Road conditions for the state you are calling from can
be obtained by calling 5 1 1.